createdAt,value
2023-03-21T00:00:55.126Z,2.23
2023-03-21T00:03:23.174Z,2.37
2023-03-21T00:05:53.583Z,1.87
2023-03-21T00:08:22.689Z,2.40
2023-03-21T00:10:57.743Z,2.07
2023-03-21T00:13:26.515Z,2.00
2023-03-21T00:16:14.694Z,1.90
2023-03-21T00:18:46.397Z,2.50
2023-03-21T00:21:39.586Z,2.80
2023-03-21T00:24:05.613Z,2.63
2023-03-21T00:26:34.248Z,2.80
2023-03-21T00:29:02.548Z,2.30
2023-03-21T00:31:31.936Z,2.47
2023-03-21T00:34:01.426Z,2.03
2023-03-21T00:36:31.357Z,2.20
2023-03-21T00:39:00.725Z,2.43
2023-03-21T00:41:41.837Z,2.57
2023-03-21T00:44:13.435Z,2.00
2023-03-21T00:46:54.127Z,1.70
2023-03-21T00:49:25.884Z,1.63
2023-03-21T00:51:55.316Z,1.90
2023-03-21T00:54:26.115Z,1.77
2023-03-21T00:56:54.218Z,2.17
2023-03-21T00:59:22.206Z,1.93
2023-03-21T01:01:53.540Z,2.17
2023-03-21T01:04:26.551Z,1.50
2023-03-21T01:06:55.962Z,1.93
2023-03-21T01:09:25.410Z,1.73
2023-03-21T01:11:54.127Z,2.03
2023-03-21T01:14:24.251Z,1.73
2023-03-21T01:16:55.744Z,1.87
2023-03-21T01:19:41.046Z,1.93
2023-03-21T01:22:13.198Z,1.60
2023-03-21T01:24:52.532Z,2.10
2023-03-21T01:27:22.277Z,1.80
2023-03-21T01:29:50.655Z,2.10
2023-03-21T01:32:20.053Z,1.97
2023-03-21T01:34:48.147Z,1.60
2023-03-21T01:37:17.730Z,2.07
2023-03-21T01:39:48.880Z,1.67
2023-03-21T01:42:17.080Z,2.20
2023-03-21T01:44:58.469Z,1.70
2023-03-21T01:47:35.778Z,1.80
2023-03-21T01:50:22.185Z,1.67
2023-03-21T01:53:04.064Z,2.17
2023-03-21T01:55:36.481Z,1.73
2023-03-21T01:58:12.709Z,1.53
2023-03-21T02:01:04.727Z,1.70
2023-03-21T02:03:50.479Z,1.70
2023-03-21T02:06:32.498Z,1.60
2023-03-21T02:09:13.092Z,2.07
2023-03-21T02:11:46.430Z,1.23
2023-03-21T02:14:26.563Z,1.73
2023-03-21T02:17:09.108Z,2.00
2023-03-21T02:20:16.618Z,2.00
2023-03-21T02:23:22.116Z,1.83
2023-03-21T02:26:21.266Z,1.60
2023-03-21T02:28:56.939Z,1.70
2023-03-21T02:31:37.508Z,1.77
2023-03-21T02:34:43.032Z,1.73
2023-03-21T02:37:28.827Z,1.90
2023-03-21T02:40:11.165Z,2.13
2023-03-21T02:43:00.001Z,1.37
2023-03-21T02:45:38.542Z,1.40
2023-03-21T02:48:20.243Z,1.77
2023-03-21T02:50:57.892Z,1.53
2023-03-21T02:53:32.754Z,1.60
2023-03-21T02:56:02.970Z,1.80
2023-03-21T02:58:34.908Z,2.13
2023-03-21T03:01:06.893Z,1.60
2023-03-21T03:03:39.520Z,1.80
2023-03-21T03:06:17.037Z,1.93
2023-03-21T03:09:08.669Z,2.30
2023-03-21T03:11:39.132Z,1.60
2023-03-21T03:14:44.193Z,1.63
2023-03-21T03:17:24.263Z,1.63
2023-03-21T03:20:15.684Z,1.70
2023-03-21T03:22:54.368Z,1.43
2023-03-21T03:25:41.655Z,2.10
2023-03-21T03:28:16.117Z,1.43
2023-03-21T03:30:57.387Z,1.50
2023-03-21T03:33:39.031Z,2.03
2023-03-21T03:36:21.601Z,2.20
2023-03-21T03:38:58.423Z,1.90
2023-03-21T03:41:32.007Z,1.80
2023-03-21T03:44:09.753Z,1.60
2023-03-21T03:46:46.780Z,1.60
2023-03-21T03:49:18.218Z,1.40
2023-03-21T03:51:55.235Z,1.97
2023-03-21T03:54:37.965Z,1.90
2023-03-21T03:57:08.641Z,1.60
2023-03-21T03:59:38.330Z,1.80
2023-03-21T04:02:30.327Z,1.60
2023-03-21T04:04:58.713Z,1.20
2023-03-21T04:07:27.785Z,1.90
2023-03-21T04:09:59.070Z,1.70
2023-03-21T04:12:28.535Z,2.00
2023-03-21T04:15:16.103Z,1.23
2023-03-21T04:17:50.416Z,1.73
2023-03-21T04:20:26.736Z,1.40
2023-03-21T04:23:04.089Z,1.60
2023-03-21T04:25:35.001Z,1.53
2023-03-21T04:28:07.214Z,1.57
2023-03-21T04:30:41.991Z,1.60
2023-03-21T04:33:18.328Z,1.30
2023-03-21T04:35:56.085Z,1.60
2023-03-21T04:38:30.508Z,1.67
2023-03-21T04:41:02.093Z,1.50
2023-03-21T04:43:32.708Z,1.10
2023-03-21T04:46:00.780Z,2.07
2023-03-21T04:48:29.268Z,1.80
2023-03-21T04:50:57.982Z,1.77
2023-03-21T04:53:26.089Z,1.67
2023-03-21T04:55:55.515Z,1.90
2023-03-21T04:58:24.132Z,2.73
2023-03-21T05:00:53.639Z,1.77
2023-03-21T05:03:22.125Z,1.97
2023-03-21T05:05:50.522Z,1.87
2023-03-21T05:08:20.473Z,2.10
2023-03-21T05:10:48.722Z,1.80
2023-03-21T05:13:16.864Z,1.70
2023-03-21T05:15:44.902Z,2.00
2023-03-21T05:18:14.368Z,1.70
2023-03-21T05:21:00.229Z,1.63
2023-03-21T05:23:31.526Z,1.70
2023-03-21T05:26:00.047Z,1.87
2023-03-21T05:28:40.838Z,2.10
2023-03-21T05:31:10.062Z,1.80
2023-03-21T05:33:39.457Z,1.53
2023-03-21T05:36:08.405Z,1.90
2023-03-21T05:38:36.476Z,1.67
2023-03-21T05:41:05.508Z,2.10
2023-03-21T05:43:33.733Z,2.40
2023-03-21T05:46:01.909Z,2.30
2023-03-21T05:48:31.673Z,2.57
2023-03-21T05:51:10.711Z,2.50
2023-03-21T05:53:38.806Z,2.60
2023-03-21T05:56:08.422Z,2.80
2023-03-21T05:58:43.407Z,3.37
2023-03-21T06:01:11.479Z,2.83
2023-03-21T06:03:42.975Z,3.07
2023-03-21T06:06:19.078Z,3.30
2023-03-21T06:08:54.765Z,4.13
2023-03-21T06:11:27.144Z,3.70
2023-03-21T06:14:12.112Z,3.80
2023-03-21T06:16:40.939Z,3.30
2023-03-21T06:19:09.061Z,2.70
2023-03-21T06:21:50.096Z,2.27
2023-03-21T06:24:18.754Z,2.47
2023-03-21T06:26:48.265Z,2.03
2023-03-21T06:29:16.565Z,1.50
2023-03-21T06:31:49.140Z,2.33
2023-03-21T06:34:17.977Z,2.63
2023-03-21T06:36:46.952Z,3.23
2023-03-21T06:39:18.775Z,3.30
2023-03-21T06:41:47.130Z,3.00
2023-03-21T06:44:15.294Z,3.77
2023-03-21T06:46:51.951Z,3.90
2023-03-21T06:49:20.998Z,3.87
2023-03-21T06:51:49.380Z,3.90
2023-03-21T06:54:22.150Z,3.77
2023-03-21T06:57:13.710Z,4.20
2023-03-21T06:59:42.551Z,3.97
2023-03-21T07:02:15.398Z,4.03
2023-03-21T07:04:49.602Z,3.27
2023-03-21T07:07:27.031Z,3.63
2023-03-21T07:09:56.785Z,3.40
2023-03-21T07:12:26.042Z,3.73
2023-03-21T07:15:12.861Z,4.50
2023-03-21T07:17:42.865Z,3.77
2023-03-21T07:20:12.694Z,4.90
2023-03-21T07:22:41.344Z,8.20
2023-03-21T07:25:11.761Z,5.00
2023-03-21T07:27:42.150Z,4.60
2023-03-21T07:30:11.533Z,3.87
2023-03-21T07:32:40.378Z,3.60
2023-03-21T07:35:12.303Z,5.00
2023-03-21T07:37:41.439Z,3.90
2023-03-21T07:40:13.306Z,4.30
2023-03-21T07:42:42.183Z,3.70
2023-03-21T07:45:16.004Z,3.60
2023-03-21T07:47:46.244Z,3.50
2023-03-21T07:50:14.655Z,3.17
2023-03-21T07:52:42.999Z,2.77
2023-03-21T07:55:12.441Z,2.70
2023-03-21T07:57:40.628Z,2.93
2023-03-21T08:00:10.817Z,2.57
2023-03-21T08:02:43.509Z,5.20
2023-03-21T08:05:11.888Z,2.77
2023-03-21T08:07:39.902Z,2.97
2023-03-21T08:10:10.702Z,2.30
2023-03-21T08:12:40.239Z,2.40
2023-03-21T08:15:09.463Z,2.90
2023-03-21T08:17:37.990Z,2.87
2023-03-21T08:20:09.009Z,3.10
2023-03-21T08:22:37.712Z,2.90
2023-03-21T08:25:08.373Z,2.33
2023-03-21T08:27:36.513Z,3.10
2023-03-21T08:30:06.896Z,3.13
2023-03-21T08:32:34.913Z,2.43
2023-03-21T08:35:04.021Z,2.80
2023-03-21T08:37:32.112Z,3.43
2023-03-21T08:40:00.313Z,2.57
2023-03-21T08:42:28.380Z,2.13
2023-03-21T08:44:56.432Z,2.57
2023-03-21T08:47:25.975Z,2.77
2023-03-21T08:49:54.401Z,2.60
2023-03-21T08:52:22.437Z,2.73
2023-03-21T08:54:50.817Z,2.30
2023-03-21T08:57:18.869Z,2.53
2023-03-21T08:59:47.090Z,2.47
2023-03-21T09:02:16.215Z,2.30
2023-03-21T09:04:45.960Z,3.00
2023-03-21T09:07:15.033Z,2.93
2023-03-21T09:09:43.689Z,3.63
2023-03-21T09:12:11.822Z,2.90
2023-03-21T09:14:39.926Z,2.17
2023-03-21T09:17:07.983Z,2.30
2023-03-21T09:19:36.153Z,2.70
2023-03-21T09:22:06.025Z,2.90
2023-03-21T09:24:34.045Z,3.10
2023-03-21T09:27:02.104Z,2.50
2023-03-21T09:29:32.349Z,3.40
2023-03-21T09:32:01.679Z,3.03
2023-03-21T09:34:29.874Z,3.20
2023-03-21T09:36:57.904Z,2.83
2023-03-21T09:39:27.611Z,3.50
2023-03-21T09:42:21.684Z,2.90
2023-03-21T09:45:01.690Z,3.30
2023-03-21T09:47:33.116Z,3.30
2023-03-21T09:50:14.159Z,3.70
2023-03-21T09:52:48.098Z,3.43
2023-03-21T09:55:21.469Z,3.30
2023-03-21T09:57:57.607Z,3.50
2023-03-21T10:00:29.505Z,2.90
2023-03-21T10:03:01.677Z,2.80
2023-03-21T10:05:32.621Z,2.73
2023-03-21T10:08:05.451Z,3.53
2023-03-21T10:10:38.052Z,4.00
2023-03-21T10:13:14.740Z,2.67
2023-03-21T10:15:42.865Z,2.83
2023-03-21T10:18:18.121Z,3.00
2023-03-21T10:20:46.828Z,3.70
2023-03-21T10:23:17.753Z,2.53
2023-03-21T10:25:51.289Z,3.33
2023-03-21T10:28:23.616Z,2.60
2023-03-21T10:30:53.962Z,2.80
2023-03-21T10:33:25.491Z,3.30
2023-03-21T10:35:57.079Z,2.90
2023-03-21T10:38:26.803Z,2.70
2023-03-21T10:40:56.887Z,2.40
2023-03-21T10:43:37.769Z,2.53
2023-03-21T10:46:12.692Z,2.60
2023-03-21T10:48:46.165Z,2.50
2023-03-21T10:51:19.957Z,2.60
2023-03-21T10:53:52.680Z,2.50
2023-03-21T10:56:26.565Z,2.20
2023-03-21T10:58:58.589Z,2.30
2023-03-21T11:01:35.078Z,2.57
2023-03-21T11:04:08.886Z,2.70
2023-03-21T11:06:39.870Z,2.20
2023-03-21T11:09:12.142Z,2.73
2023-03-21T11:11:49.877Z,2.80
2023-03-21T11:14:28.578Z,2.30
2023-03-21T11:16:56.635Z,2.20
2023-03-21T11:19:30.747Z,2.40
2023-03-21T11:21:59.777Z,2.40
2023-03-21T11:24:31.266Z,3.00
2023-03-21T11:27:01.587Z,2.80
2023-03-21T11:29:34.105Z,2.77
2023-03-21T11:32:09.908Z,3.10
2023-03-21T11:34:47.440Z,2.80
2023-03-21T11:37:22.134Z,2.50
2023-03-21T11:39:57.076Z,3.47
2023-03-21T11:42:31.852Z,2.70
2023-03-21T11:45:04.637Z,3.47
2023-03-21T11:47:32.789Z,3.30
2023-03-21T11:50:04.988Z,2.50
2023-03-21T11:52:44.452Z,3.03
2023-03-21T11:55:25.569Z,3.20
2023-03-21T11:58:14.181Z,3.50
2023-03-21T12:00:49.325Z,3.17
2023-03-21T12:03:48.660Z,3.93
2023-03-21T12:06:25.749Z,3.40
2023-03-21T12:09:07.072Z,3.83
2023-03-21T12:11:46.578Z,3.87
2023-03-21T12:14:25.710Z,3.80
2023-03-21T12:17:11.932Z,3.63
2023-03-21T12:20:15.630Z,3.37
2023-03-21T12:22:54.174Z,3.00
2023-03-21T12:25:27.741Z,3.40
2023-03-21T12:28:07.006Z,3.33
2023-03-21T12:30:46.953Z,3.20
2023-03-21T12:33:26.272Z,3.23
2023-03-21T12:36:17.718Z,3.27
2023-03-21T12:38:54.668Z,2.77
2023-03-21T12:41:27.249Z,3.27
2023-03-21T12:44:01.300Z,2.80
2023-03-21T12:46:37.483Z,2.40
2023-03-21T12:49:10.711Z,2.30
2023-03-21T12:51:42.975Z,2.73
2023-03-21T12:54:19.729Z,2.00
2023-03-21T12:56:53.887Z,2.20
2023-03-21T12:59:28.060Z,2.37
2023-03-21T13:02:04.125Z,2.10
2023-03-21T13:04:44.840Z,2.00
2023-03-21T13:07:19.950Z,2.47
2023-03-21T13:09:48.137Z,2.40
2023-03-21T13:12:41.668Z,2.70
2023-03-21T13:15:30.434Z,2.23
2023-03-21T13:18:05.736Z,2.40
2023-03-21T13:20:41.451Z,2.10
2023-03-21T13:23:09.983Z,2.30
2023-03-21T13:25:44.247Z,2.20
2023-03-21T13:28:21.221Z,2.50
2023-03-21T13:30:50.178Z,2.73
2023-03-21T13:33:24.563Z,2.60
2023-03-21T13:36:05.543Z,2.80
2023-03-21T13:38:35.454Z,2.70
2023-03-21T13:41:08.874Z,2.43
2023-03-21T13:43:44.385Z,2.47
2023-03-21T13:46:14.188Z,2.70
2023-03-21T13:48:57.757Z,3.00
2023-03-21T13:51:47.729Z,2.90
2023-03-21T13:54:25.407Z,3.13
2023-03-21T13:56:55.159Z,3.67
2023-03-21T13:59:41.998Z,3.00
2023-03-21T14:02:28.223Z,3.13
2023-03-21T14:05:06.012Z,3.67
2023-03-21T14:07:36.817Z,3.50
2023-03-21T14:10:09.281Z,3.83
2023-03-21T14:12:41.926Z,4.20
2023-03-21T14:15:18.786Z,3.60
2023-03-21T14:17:55.907Z,4.43
2023-03-21T14:20:27.736Z,3.93
2023-03-21T14:22:56.163Z,5.10
2023-03-21T14:25:31.243Z,3.53
2023-03-21T14:28:03.778Z,4.80
2023-03-21T14:30:35.628Z,4.63
2023-03-21T14:33:09.121Z,4.73
2023-03-21T14:35:42.315Z,4.47
2023-03-21T14:38:20.967Z,4.33
2023-03-21T14:40:51.441Z,4.67
2023-03-21T14:43:20.399Z,4.57
2023-03-21T14:45:49.630Z,4.67
2023-03-21T14:48:18.556Z,4.67
2023-03-21T14:50:50.729Z,5.20
2023-03-21T14:53:23.187Z,5.23
2023-03-21T14:55:57.197Z,4.07
2023-03-21T14:58:26.165Z,5.40
2023-03-21T15:00:55.656Z,5.33
2023-03-21T15:03:26.891Z,5.00
2023-03-21T15:05:57.241Z,5.60
2023-03-21T15:08:27.584Z,4.80
2023-03-21T15:11:06.275Z,5.20
2023-03-21T15:13:37.809Z,5.20
2023-03-21T15:16:06.673Z,4.67
2023-03-21T15:18:38.851Z,4.90
2023-03-21T15:21:11.065Z,4.60
2023-03-21T15:23:42.451Z,4.83
2023-03-21T15:26:15.563Z,5.67
2023-03-21T15:28:46.532Z,3.53
2023-03-21T15:31:19.821Z,4.80
2023-03-21T15:33:48.951Z,4.60
2023-03-21T15:36:22.858Z,5.00
2023-03-21T15:38:51.336Z,4.20
2023-03-21T15:41:29.102Z,4.27
2023-03-21T15:44:06.412Z,4.90
2023-03-21T15:46:41.335Z,4.27
2023-03-21T15:49:10.862Z,4.10
2023-03-21T15:51:42.583Z,4.17
2023-03-21T15:54:16.235Z,4.40
2023-03-21T15:56:45.865Z,4.00
2023-03-21T15:59:18.131Z,4.37
2023-03-21T16:01:48.509Z,4.40
2023-03-21T16:04:18.492Z,4.13
2023-03-21T16:06:59.086Z,4.80
2023-03-21T16:09:27.530Z,3.80
2023-03-21T16:11:56.937Z,4.07
2023-03-21T16:14:28.357Z,4.63
2023-03-21T16:16:57.497Z,5.33
2023-03-21T16:19:27.650Z,4.93
2023-03-21T16:21:57.038Z,4.73
2023-03-21T16:24:25.017Z,3.90
2023-03-21T16:26:53.426Z,4.07
2023-03-21T16:29:22.475Z,4.30
2023-03-21T16:31:50.730Z,3.90
2023-03-21T16:34:18.822Z,4.47
2023-03-21T16:36:47.510Z,4.10
2023-03-21T16:39:19.821Z,4.37
2023-03-21T16:41:48.697Z,4.20
2023-03-21T16:44:16.904Z,4.17
2023-03-21T16:46:47.037Z,4.87
2023-03-21T16:49:20.601Z,4.47
2023-03-21T16:51:48.679Z,4.30
2023-03-21T16:54:18.289Z,5.00
2023-03-21T16:56:50.456Z,4.30
2023-03-21T16:59:19.028Z,4.60
2023-03-21T17:01:48.132Z,4.10
2023-03-21T17:04:17.606Z,5.10
2023-03-21T17:06:47.373Z,4.97
2023-03-21T17:09:18.274Z,4.90
2023-03-21T17:11:46.655Z,4.50
2023-03-21T17:14:16.777Z,5.10
2023-03-21T17:16:45.758Z,5.37
2023-03-21T17:19:15.573Z,5.43
2023-03-21T17:21:43.809Z,5.30
2023-03-21T17:24:11.882Z,4.80
2023-03-21T17:26:41.390Z,4.43
2023-03-21T17:29:11.750Z,5.70
2023-03-21T17:31:39.846Z,4.90
2023-03-21T17:34:09.639Z,5.07
2023-03-21T17:36:39.796Z,5.27
2023-03-21T17:39:09.612Z,5.33
2023-03-21T17:41:37.646Z,4.83
2023-03-21T17:44:07.172Z,4.77
2023-03-21T17:46:37.421Z,5.43
2023-03-21T17:49:06.318Z,5.00
2023-03-21T17:51:34.356Z,4.77
2023-03-21T17:54:03.035Z,5.33
2023-03-21T17:56:32.645Z,5.20
2023-03-21T17:59:02.567Z,5.13
2023-03-21T18:01:32.521Z,5.80
2023-03-21T18:04:02.701Z,5.07
2023-03-21T18:06:30.891Z,5.37
2023-03-21T18:09:00.367Z,6.30
2023-03-21T18:11:28.868Z,5.00
2023-03-21T18:14:13.824Z,5.23
2023-03-21T18:16:45.119Z,5.57
2023-03-21T18:19:14.890Z,7.30
2023-03-21T18:21:44.724Z,7.10
2023-03-21T18:24:13.313Z,6.70
2023-03-21T18:26:41.472Z,5.60
2023-03-21T18:30:13.166Z,7.40
2023-03-21T18:32:06.866Z,6.60
2023-03-21T18:34:37.201Z,6.60
2023-03-21T18:37:07.572Z,5.70
2023-03-21T18:39:36.429Z,7.90
2023-03-21T18:42:05.097Z,8.73
2023-03-21T18:44:38.524Z,7.00
2023-03-21T18:47:08.503Z,7.10
2023-03-21T18:52:26.302Z,7.73
2023-03-21T18:54:54.592Z,7.83
2023-03-21T18:57:38.988Z,8.00
2023-03-21T19:00:13.064Z,7.67
2023-03-21T19:02:47.023Z,9.43
2023-03-21T19:05:17.051Z,7.67
2023-03-21T19:07:48.162Z,9.27
2023-03-21T19:10:20.477Z,12.97
2023-03-21T19:12:49.767Z,12.73
2023-03-21T19:15:19.658Z,11.93
2023-03-21T19:20:43.629Z,8.07
2023-03-21T19:23:11.909Z,7.23
2023-03-21T19:25:39.937Z,7.97
2023-03-21T19:28:09.725Z,9.07
2023-03-21T19:30:38.080Z,9.70
2023-03-21T19:33:07.574Z,8.83
2023-03-21T19:35:40.952Z,9.37
2023-03-21T19:38:09.104Z,8.63
2023-03-21T19:40:39.972Z,8.13
2023-03-21T19:43:31.300Z,8.30
2023-03-21T19:45:57.820Z,7.03
2023-03-21T19:48:28.121Z,6.13
2023-03-21T19:53:44.424Z,5.93
2023-03-21T19:56:21.652Z,6.20
2023-03-21T19:58:51.827Z,6.90
2023-03-21T20:01:19.863Z,6.90
2023-03-21T20:03:49.509Z,7.03
2023-03-21T20:06:17.650Z,7.13
2023-03-21T20:11:34.107Z,6.00
2023-03-21T20:14:03.292Z,5.23
2023-03-21T20:16:35.825Z,5.33
2023-03-21T20:19:08.666Z,4.70
2023-03-21T20:21:48.175Z,4.30
2023-03-21T20:24:20.102Z,4.27
2023-03-21T20:26:49.467Z,3.83
2023-03-21T20:32:06.588Z,4.37
2023-03-21T20:34:37.009Z,4.30
2023-03-21T20:37:06.117Z,4.20
2023-03-21T20:39:34.603Z,3.50
2023-03-21T20:42:02.799Z,3.70
2023-03-21T20:47:19.241Z,3.60
2023-03-21T20:49:49.634Z,4.40
2023-03-21T20:55:09.042Z,5.73
2023-03-21T20:57:38.710Z,5.27
2023-03-21T21:00:13.590Z,6.17
2023-03-21T21:02:42.923Z,5.90
2023-03-21T21:05:32.989Z,6.70
2023-03-21T21:08:03.510Z,4.93
2023-03-21T21:10:33.715Z,5.93
2023-03-21T21:13:02.490Z,6.10
2023-03-21T21:15:30.559Z,5.80
2023-03-21T21:18:06.144Z,6.70
2023-03-21T21:20:37.267Z,5.53
2023-03-21T21:23:06.122Z,5.77
2023-03-21T21:25:35.463Z,5.27
2023-03-21T21:28:08.910Z,5.90
2023-03-21T21:30:41.201Z,6.70
2023-03-21T21:33:09.556Z,7.03
2023-03-21T21:35:39.405Z,8.20
2023-03-21T21:38:07.484Z,9.53
2023-03-21T21:40:36.312Z,7.30
2023-03-21T21:43:04.524Z,7.40
2023-03-21T21:45:32.608Z,8.50
2023-03-21T21:48:00.704Z,8.40
2023-03-21T21:50:28.802Z,8.17
2023-03-21T21:53:03.552Z,7.73
2023-03-21T21:55:31.822Z,6.40
2023-03-21T21:58:00.528Z,5.13
2023-03-21T22:00:30.688Z,6.10
2023-03-21T22:02:59.641Z,6.27
2023-03-21T22:05:28.166Z,6.23
2023-03-21T22:07:58.124Z,6.50
2023-03-21T22:10:28.215Z,6.77
2023-03-21T22:12:56.298Z,6.73
2023-03-21T22:15:24.307Z,7.00
2023-03-21T22:17:52.544Z,6.97
2023-03-21T22:20:21.829Z,7.30
2023-03-21T22:22:50.054Z,6.73
2023-03-21T22:25:20.008Z,6.07
2023-03-21T22:27:48.039Z,6.30
2023-03-21T22:30:18.524Z,7.03
2023-03-21T22:32:56.430Z,6.97
2023-03-21T22:35:27.411Z,6.67
2023-03-21T22:37:55.520Z,7.27
2023-03-21T22:40:24.883Z,6.43
2023-03-21T22:42:52.914Z,6.83
2023-03-21T22:45:20.964Z,5.83
2023-03-21T22:47:49.092Z,5.73
2023-03-21T22:50:17.341Z,6.80
2023-03-21T22:52:45.390Z,6.10
2023-03-21T22:55:14.307Z,6.43
2023-03-21T22:57:43.661Z,6.70
2023-03-21T23:00:14.342Z,5.17
2023-03-21T23:02:43.843Z,6.03
2023-03-21T23:05:12.115Z,6.00
2023-03-21T23:07:40.509Z,7.40
2023-03-21T23:10:11.966Z,6.80
2023-03-21T23:12:40.647Z,7.10
2023-03-21T23:15:11.738Z,6.70
2023-03-21T23:17:39.779Z,6.10
2023-03-21T23:20:09.560Z,7.60
2023-03-21T23:22:38.138Z,7.30
2023-03-21T23:25:07.445Z,7.30
2023-03-21T23:27:36.269Z,7.57
2023-03-21T23:30:06.336Z,7.40
2023-03-21T23:32:36.118Z,7.30
2023-03-21T23:35:04.212Z,8.20
2023-03-21T23:37:32.244Z,7.97
2023-03-21T23:40:00.469Z,8.60
2023-03-21T23:42:30.281Z,9.33
2023-03-21T23:44:58.384Z,8.80
2023-03-21T23:47:26.444Z,8.97
2023-03-21T23:49:55.786Z,8.20
2023-03-21T23:52:23.864Z,10.87
2023-03-21T23:54:51.884Z,9.80
2023-03-21T23:57:20.213Z,9.37
2023-03-21T23:59:48.251Z,8.60
